createdAt,value
2022-08-14T00:00:23.529Z,64.16
2022-08-14T00:02:54.756Z,64.25
2022-08-14T00:05:25.809Z,64.18
2022-08-14T00:07:57.110Z,63.81
2022-08-14T00:10:52.393Z,63.72
2022-08-14T00:13:20.030Z,63.77
2022-08-14T00:15:52.155Z,63.88
2022-08-14T00:18:30.738Z,63.72
2022-08-14T00:21:13.736Z,63.96
2022-08-14T00:23:44.789Z,63.87
2022-08-14T00:26:25.134Z,64.02
2022-08-14T00:28:56.879Z,64.09
2022-08-14T00:31:35.322Z,64.53
2022-08-14T00:34:37.728Z,64.86
2022-08-14T00:37:07.504Z,64.98
2022-08-14T00:39:38.549Z,65.16
2022-08-14T00:42:21.154Z,65.32
2022-08-14T00:44:53.690Z,65.30
2022-08-14T00:47:26.846Z,65.27
2022-08-14T00:49:58.406Z,65.42
2022-08-14T00:52:31.376Z,65.31
2022-08-14T00:55:04.359Z,65.08
2022-08-14T00:57:37.647Z,65.07
2022-08-14T01:00:34.264Z,64.86
2022-08-14T01:03:07.367Z,64.91
2022-08-14T01:05:41.814Z,64.69
2022-08-14T01:08:57.377Z,64.98
2022-08-14T01:11:19.359Z,65.42
2022-08-14T01:14:00.823Z,65.72
2022-08-14T01:16:32.288Z,65.85
2022-08-14T01:19:20.541Z,65.66
2022-08-14T01:21:52.828Z,65.63
2022-08-14T01:24:30.950Z,65.65
2022-08-14T01:27:07.192Z,65.73
2022-08-14T01:29:58.436Z,65.61
2022-08-14T01:32:29.925Z,65.37
2022-08-14T01:35:19.829Z,65.39
2022-08-14T01:37:56.521Z,65.50
2022-08-14T01:40:36.375Z,65.48
2022-08-14T01:43:18.628Z,65.53
2022-08-14T01:46:05.722Z,65.31
2022-08-14T01:48:38.696Z,65.22
2022-08-14T01:51:19.224Z,65.01
2022-08-14T01:53:55.838Z,65.21
2022-08-14T01:56:36.992Z,65.05
2022-08-14T01:59:20.627Z,65.11
2022-08-14T02:01:58.522Z,65.08
2022-08-14T02:04:55.962Z,64.89
2022-08-14T02:07:34.643Z,64.81
2022-08-14T02:10:16.563Z,65.00
2022-08-14T02:12:56.959Z,65.10
2022-08-14T02:15:28.636Z,65.17
2022-08-14T02:18:01.616Z,65.30
2022-08-14T02:20:34.285Z,64.99
2022-08-14T02:23:08.158Z,65.63
2022-08-14T02:25:39.677Z,65.96
2022-08-14T02:28:23.428Z,66.33
2022-08-14T02:31:01.818Z,66.56
2022-08-14T02:33:33.829Z,66.41
2022-08-14T02:37:05.227Z,66.37
2022-08-14T02:39:02.948Z,66.10
2022-08-14T02:41:39.026Z,65.80
2022-08-14T02:44:11.628Z,65.79
2022-08-14T02:46:44.746Z,65.66
2022-08-14T02:49:31.520Z,65.65
2022-08-14T02:52:26.935Z,65.51
2022-08-14T02:54:58.239Z,65.55
2022-08-14T02:57:40.375Z,65.75
2022-08-14T03:00:18.852Z,65.77
2022-08-14T03:02:58.923Z,66.12
2022-08-14T03:05:35.835Z,66.07
2022-08-14T03:08:11.234Z,65.97
2022-08-14T03:10:49.342Z,65.90
2022-08-14T03:13:22.210Z,65.77
2022-08-14T03:15:57.906Z,65.63
2022-08-14T03:18:31.197Z,65.21
2022-08-14T03:21:08.943Z,64.98
2022-08-14T03:23:40.223Z,65.12
2022-08-14T03:26:18.168Z,65.53
2022-08-14T03:28:51.851Z,66.14
2022-08-14T03:31:25.897Z,66.52
2022-08-14T03:33:59.849Z,67.09
2022-08-14T03:37:37.633Z,67.46
2022-08-14T03:39:24.140Z,67.86
2022-08-14T03:41:59.953Z,67.97
2022-08-14T03:45:19.080Z,67.73
2022-08-14T03:47:28.007Z,67.49
2022-08-14T03:50:27.486Z,67.36
2022-08-14T03:53:03.748Z,67.21
2022-08-14T03:55:34.810Z,66.87
2022-08-14T03:58:05.658Z,66.64
2022-08-14T04:00:42.758Z,66.55
2022-08-14T04:03:24.231Z,66.43
2022-08-14T04:05:55.415Z,66.24
2022-08-14T04:08:30.659Z,66.35
2022-08-14T04:11:07.963Z,66.52
2022-08-14T04:13:43.192Z,66.35
2022-08-14T04:16:17.927Z,66.23
2022-08-14T04:18:50.776Z,66.01
2022-08-14T04:21:24.484Z,65.91
2022-08-14T04:24:00.722Z,65.94
2022-08-14T04:26:42.313Z,65.63
2022-08-14T04:29:16.131Z,65.17
2022-08-14T04:33:01.565Z,64.95
2022-08-14T04:34:41.913Z,64.58
2022-08-14T04:37:30.480Z,64.59
2022-08-14T04:40:18.914Z,64.22
2022-08-14T04:43:07.354Z,64.00
2022-08-14T04:45:45.103Z,64.03
2022-08-14T04:48:39.596Z,63.79
2022-08-14T04:51:11.462Z,63.65
2022-08-14T04:53:45.531Z,63.71
2022-08-14T04:56:33.619Z,63.30
2022-08-14T04:59:10.273Z,63.14
2022-08-14T05:01:48.896Z,62.47
2022-08-14T05:04:24.902Z,61.90
2022-08-14T05:06:56.271Z,61.22
2022-08-14T05:09:28.726Z,60.43
2022-08-14T05:13:12.758Z,59.75
2022-08-14T05:14:55.267Z,59.02
2022-08-14T05:17:39.241Z,58.41
2022-08-14T05:21:10.861Z,57.53
2022-08-14T05:23:07.984Z,56.68
2022-08-14T05:25:42.166Z,56.14
2022-08-14T05:28:19.224Z,55.75
2022-08-14T05:30:53.905Z,55.19
2022-08-14T05:33:28.510Z,54.33
2022-08-14T05:36:03.257Z,53.34
2022-08-14T05:38:36.834Z,53.19
2022-08-14T05:41:12.298Z,52.77
2022-08-14T05:43:45.296Z,52.78
2022-08-14T05:46:18.588Z,52.03
2022-08-14T05:48:53.200Z,52.25
2022-08-14T05:51:25.759Z,52.28
2022-08-14T05:54:00.217Z,52.26
2022-08-14T05:56:40.778Z,51.48
2022-08-14T05:59:12.423Z,51.00
2022-08-14T06:01:43.287Z,51.18
2022-08-14T06:04:14.460Z,50.56
2022-08-14T06:06:46.571Z,50.46
2022-08-14T06:09:17.858Z,50.19
2022-08-14T06:11:49.781Z,50.00
2022-08-14T06:14:23.952Z,49.37
2022-08-14T06:16:55.110Z,48.87
2022-08-14T06:19:25.900Z,48.39
2022-08-14T06:21:58.880Z,48.23
2022-08-14T06:24:34.692Z,47.85
2022-08-14T06:27:10.042Z,47.73
2022-08-14T06:29:41.686Z,47.12
2022-08-14T06:32:37.595Z,46.83
2022-08-14T06:35:13.252Z,46.72
2022-08-14T06:37:48.949Z,46.57
2022-08-14T06:40:26.185Z,46.26
2022-08-14T06:43:03.737Z,46.03
2022-08-14T06:45:36.134Z,46.26
2022-08-14T06:48:17.309Z,46.37
2022-08-14T06:50:49.397Z,46.56
2022-08-14T06:53:20.532Z,47.05
2022-08-14T06:56:01.166Z,47.49
2022-08-14T06:58:33.186Z,47.69
2022-08-14T07:01:27.540Z,47.86
2022-08-14T07:04:23.169Z,48.05
2022-08-14T07:06:59.483Z,48.40
2022-08-14T07:09:43.883Z,48.38
2022-08-14T07:12:54.742Z,48.37
2022-08-14T07:15:13.306Z,48.38
2022-08-14T07:17:54.126Z,48.53
2022-08-14T07:20:30.876Z,48.70
2022-08-14T07:23:08.003Z,49.15
2022-08-14T07:25:43.849Z,49.15
2022-08-14T07:28:20.959Z,49.68
2022-08-14T07:30:56.173Z,49.75
2022-08-14T07:33:30.028Z,49.88
2022-08-14T07:36:27.840Z,49.99
2022-08-14T07:38:56.196Z,50.02
2022-08-14T07:41:33.702Z,49.83
2022-08-14T07:44:32.869Z,49.87
2022-08-14T07:46:58.189Z,49.85
2022-08-14T07:49:29.986Z,50.10
2022-08-14T07:52:01.187Z,50.57
2022-08-14T07:54:34.136Z,50.89
2022-08-14T07:57:06.361Z,51.47
2022-08-14T07:59:44.704Z,52.21
2022-08-14T08:02:20.576Z,52.04
2022-08-14T08:04:58.849Z,51.84
2022-08-14T08:07:32.575Z,51.30
2022-08-14T08:10:46.672Z,50.63
2022-08-14T08:13:24.219Z,50.03
2022-08-14T08:15:58.233Z,49.75
2022-08-14T08:18:29.832Z,49.53
2022-08-14T08:21:02.491Z,49.64
2022-08-14T08:23:40.031Z,49.72
2022-08-14T08:26:14.482Z,49.67
2022-08-14T08:28:56.246Z,49.54
2022-08-14T08:31:34.887Z,49.70
2022-08-14T08:34:07.550Z,49.68
2022-08-14T08:36:46.616Z,49.67
2022-08-14T08:39:22.906Z,49.77
2022-08-14T08:41:54.125Z,49.38
2022-08-14T08:44:34.193Z,49.27
2022-08-14T08:47:08.075Z,49.01
2022-08-14T08:49:59.275Z,49.17
2022-08-14T08:52:32.101Z,49.11
2022-08-14T08:55:04.449Z,49.18
2022-08-14T08:57:38.103Z,48.95
2022-08-14T09:00:25.414Z,49.06
2022-08-14T09:02:59.527Z,49.05
2022-08-14T09:05:31.137Z,48.98
2022-08-14T09:08:30.337Z,48.63
2022-08-14T09:11:19.678Z,48.39
2022-08-14T09:13:54.827Z,48.57
2022-08-14T09:16:26.473Z,48.62
2022-08-14T09:18:56.194Z,49.24
2022-08-14T09:21:31.264Z,49.13
2022-08-14T09:24:28.221Z,49.09
2022-08-14T09:26:54.012Z,49.01
2022-08-14T09:29:24.747Z,49.00
2022-08-14T09:32:04.262Z,48.67
2022-08-14T09:35:04.573Z,48.80
2022-08-14T09:37:50.294Z,48.57
2022-08-14T09:40:38.763Z,48.13
2022-08-14T09:43:22.612Z,47.95
2022-08-14T09:45:58.308Z,47.69
2022-08-14T09:48:32.904Z,47.33
2022-08-14T09:54:19.035Z,47.28
2022-08-14T09:56:46.923Z,46.40
2022-08-14T09:59:32.026Z,45.66
2022-08-14T10:02:03.367Z,44.94
2022-08-14T10:04:38.430Z,43.23
2022-08-14T10:07:12.461Z,42.80
2022-08-14T10:10:00.329Z,41.59
2022-08-14T10:12:50.155Z,41.20
2022-08-14T10:15:27.791Z,41.35
2022-08-14T10:18:17.733Z,41.25
2022-08-14T10:20:57.669Z,41.19
2022-08-14T10:23:34.950Z,40.72
2022-08-14T10:26:06.693Z,40.91
2022-08-14T10:29:18.583Z,41.12
2022-08-14T10:31:44.934Z,41.04
2022-08-14T10:34:29.147Z,40.46
2022-08-14T10:37:14.734Z,40.50
2022-08-14T10:40:02.155Z,39.81
2022-08-14T10:42:43.758Z,39.39
2022-08-14T10:45:24.413Z,39.65
2022-08-14T10:48:07.733Z,39.64
2022-08-14T10:50:51.463Z,39.68
2022-08-14T10:53:35.695Z,38.57
2022-08-14T10:56:21.347Z,38.50
2022-08-14T10:59:05.659Z,38.88
2022-08-14T11:01:41.044Z,39.00
2022-08-14T11:04:30.874Z,38.88
2022-08-14T11:07:02.296Z,38.78
2022-08-14T11:09:36.724Z,38.59
2022-08-14T11:12:34.488Z,38.67
2022-08-14T11:15:03.775Z,37.88
2022-08-14T11:17:37.224Z,37.37
2022-08-14T11:20:14.012Z,37.34
2022-08-14T11:22:56.392Z,37.27
2022-08-14T11:25:43.426Z,36.82
2022-08-14T11:28:19.232Z,36.27
2022-08-14T11:30:53.768Z,35.88
2022-08-14T11:33:32.641Z,35.85
2022-08-14T11:36:17.987Z,36.07
2022-08-14T11:38:49.609Z,36.05
2022-08-14T11:41:22.861Z,36.47
2022-08-14T11:43:58.705Z,37.15
2022-08-14T11:46:37.573Z,37.25
2022-08-14T11:49:09.492Z,37.29
2022-08-14T11:51:53.966Z,38.05
2022-08-14T11:54:34.382Z,38.50
2022-08-14T11:57:06.770Z,38.36
2022-08-14T11:59:35.834Z,38.55
2022-08-14T12:03:00.518Z,38.71
2022-08-14T12:05:10.405Z,38.59
2022-08-14T12:07:51.227Z,39.02
2022-08-14T12:10:27.216Z,39.96
2022-08-14T12:13:17.372Z,40.45
2022-08-14T12:15:58.953Z,40.83
2022-08-14T12:18:34.458Z,40.86
2022-08-14T12:21:19.285Z,40.96
2022-08-14T12:24:02.500Z,41.03
2022-08-14T12:26:40.715Z,40.69
2022-08-14T12:29:14.412Z,39.64
2022-08-14T12:31:47.427Z,39.23
2022-08-14T12:34:24.241Z,38.88
2022-08-14T12:37:07.063Z,39.37
2022-08-14T12:39:40.107Z,39.24
2022-08-14T12:42:34.594Z,39.26
2022-08-14T12:45:03.888Z,39.03
2022-08-14T12:47:35.225Z,38.96
2022-08-14T12:50:06.847Z,39.10
2022-08-14T12:52:53.930Z,39.23
2022-08-14T12:56:17.533Z,39.38
2022-08-14T12:58:50.023Z,39.56
2022-08-14T13:01:28.855Z,39.78
2022-08-14T13:04:10.467Z,39.81
2022-08-14T13:06:44.746Z,39.99
2022-08-14T13:09:28.014Z,39.97
2022-08-14T13:12:32.191Z,39.96
2022-08-14T13:15:01.851Z,40.00
2022-08-14T13:17:44.017Z,40.33
2022-08-14T13:20:23.449Z,40.31
2022-08-14T13:22:56.739Z,40.43
2022-08-14T13:25:27.325Z,40.62
2022-08-14T13:28:00.325Z,40.74
2022-08-14T13:30:33.335Z,40.83
2022-08-14T13:33:06.837Z,40.89
2022-08-14T13:35:48.028Z,40.96
2022-08-14T13:38:22.598Z,40.46
2022-08-14T13:40:57.667Z,40.12
2022-08-14T13:43:31.502Z,40.01
2022-08-14T13:46:08.533Z,40.07
2022-08-14T13:48:42.269Z,40.14
2022-08-14T13:51:17.117Z,40.10
2022-08-14T13:54:08.309Z,40.22
2022-08-14T13:56:42.776Z,40.23
2022-08-14T13:59:20.281Z,39.93
2022-08-14T14:02:05.323Z,39.14
2022-08-14T14:04:41.943Z,39.23
2022-08-14T14:07:15.996Z,39.24
2022-08-14T14:09:52.703Z,38.84
2022-08-14T14:12:49.179Z,38.97
2022-08-14T14:15:18.970Z,39.21
2022-08-14T14:18:00.658Z,39.20
2022-08-14T14:20:35.455Z,39.03
2022-08-14T14:23:11.999Z,38.16
2022-08-14T14:25:56.866Z,38.18
2022-08-14T14:28:33.526Z,37.87
2022-08-14T14:31:06.863Z,37.63
2022-08-14T14:33:47.337Z,37.92
2022-08-14T14:36:25.996Z,38.03
2022-08-14T14:38:59.401Z,38.25
2022-08-14T14:41:43.757Z,38.55
2022-08-14T14:44:16.557Z,38.69
2022-08-14T14:46:50.107Z,38.66
2022-08-14T14:49:25.905Z,38.56
2022-08-14T14:52:23.074Z,38.25
2022-08-14T14:54:54.719Z,38.26
2022-08-14T14:57:35.906Z,38.67
2022-08-14T15:00:13.026Z,38.86
2022-08-14T15:02:46.432Z,38.89
2022-08-14T15:05:19.186Z,38.99
2022-08-14T15:07:52.729Z,39.13
2022-08-14T15:10:28.010Z,39.21
2022-08-14T15:13:04.467Z,39.49
2022-08-14T15:15:37.809Z,39.69
2022-08-14T15:18:36.888Z,39.92
2022-08-14T15:21:02.972Z,40.00
2022-08-14T15:23:44.752Z,40.16
2022-08-14T15:26:30.892Z,40.30
2022-08-14T15:29:06.490Z,40.45
2022-08-14T15:31:38.695Z,40.45
2022-08-14T15:34:43.538Z,40.55
2022-08-14T15:37:12.643Z,40.32
2022-08-14T15:39:44.555Z,40.57
2022-08-14T15:42:17.635Z,40.52
2022-08-14T15:44:58.414Z,40.51
2022-08-14T15:47:35.969Z,40.46
2022-08-14T15:50:13.303Z,40.43
2022-08-14T15:52:44.878Z,40.30
2022-08-14T15:55:16.880Z,40.02
2022-08-14T15:58:01.319Z,40.15
2022-08-14T16:00:52.908Z,40.33
2022-08-14T16:03:27.582Z,40.18
2022-08-14T16:06:11.085Z,40.49
2022-08-14T16:08:50.374Z,40.52
2022-08-14T16:11:32.842Z,40.68
2022-08-14T16:14:06.770Z,40.70
2022-08-14T16:16:51.589Z,40.86
2022-08-14T16:19:31.100Z,40.81
2022-08-14T16:22:58.723Z,40.92
2022-08-14T16:25:02.969Z,40.98
2022-08-14T16:27:41.410Z,41.16
2022-08-14T16:30:20.782Z,41.18
2022-08-14T16:32:58.886Z,41.25
2022-08-14T16:35:41.901Z,41.35
2022-08-14T16:38:45.878Z,41.38
2022-08-14T16:41:23.103Z,41.46
2022-08-14T16:44:01.387Z,41.44
2022-08-14T16:46:35.333Z,41.46
2022-08-14T16:49:07.642Z,41.43
2022-08-14T16:51:40.896Z,41.42
2022-08-14T16:54:34.473Z,41.39
2022-08-14T16:57:17.083Z,41.21
2022-08-14T16:59:51.867Z,41.42
2022-08-14T17:02:38.900Z,41.18
2022-08-14T17:05:21.775Z,41.27
2022-08-14T17:08:32.654Z,41.26
2022-08-14T17:11:10.592Z,41.34
2022-08-14T17:13:59.896Z,41.39
2022-08-14T17:16:37.539Z,41.60
2022-08-14T17:19:14.352Z,41.74
2022-08-14T17:21:50.632Z,41.59
2022-08-14T17:24:57.381Z,41.52
2022-08-14T17:27:18.355Z,41.82
2022-08-14T17:29:57.625Z,42.01
2022-08-14T17:32:55.959Z,42.53
2022-08-14T17:35:53.098Z,42.46
2022-08-14T17:38:38.812Z,42.72
2022-08-14T17:41:32.600Z,42.90
2022-08-14T17:44:19.927Z,43.27
2022-08-14T17:46:55.407Z,43.70
2022-08-14T17:49:31.964Z,43.95
2022-08-14T17:52:07.699Z,44.33
2022-08-14T17:54:52.665Z,44.44
2022-08-14T17:57:28.407Z,44.50
2022-08-14T18:00:01.685Z,44.78
2022-08-14T18:02:36.375Z,45.18
2022-08-14T18:05:10.856Z,45.67
2022-08-14T18:07:59.524Z,46.00
2022-08-14T18:10:54.892Z,46.28
2022-08-14T18:13:50.131Z,46.41
2022-08-14T18:16:20.304Z,46.15
2022-08-14T18:18:53.647Z,46.27
2022-08-14T18:21:41.592Z,46.57
2022-08-14T18:24:20.412Z,46.60
2022-08-14T18:27:06.892Z,46.53
2022-08-14T18:29:55.330Z,46.49
2022-08-14T18:32:47.093Z,46.64
2022-08-14T18:35:20.136Z,47.00
2022-08-14T18:37:55.614Z,46.99
2022-08-14T18:40:34.465Z,47.54
2022-08-14T18:43:07.071Z,47.55
2022-08-14T18:45:58.698Z,47.85
2022-08-14T18:48:50.303Z,47.82
2022-08-14T18:51:45.433Z,48.14
2022-08-14T18:54:34.325Z,48.31
2022-08-14T18:57:09.686Z,48.88
2022-08-14T18:59:43.560Z,48.79
2022-08-14T19:02:44.476Z,48.70
2022-08-14T19:05:36.659Z,48.87
2022-08-14T19:08:26.301Z,49.50
2022-08-14T19:11:03.947Z,49.40
2022-08-14T19:13:44.699Z,49.18
2022-08-14T19:16:22.777Z,49.06
2022-08-14T19:19:00.635Z,48.95
2022-08-14T19:21:34.389Z,49.12
2022-08-14T19:24:27.777Z,49.81
2022-08-14T19:27:19.585Z,49.86
2022-08-14T19:30:19.203Z,50.28
2022-08-14T19:32:56.053Z,50.25
2022-08-14T19:35:59.925Z,50.49
2022-08-14T19:38:52.138Z,50.80
2022-08-14T19:41:29.461Z,50.88
2022-08-14T19:44:11.810Z,50.94
2022-08-14T19:47:02.814Z,51.17
2022-08-14T19:50:08.115Z,51.22
2022-08-14T19:52:37.133Z,51.18
2022-08-14T19:55:19.845Z,51.42
2022-08-14T19:57:58.583Z,51.52
2022-08-14T20:00:30.561Z,51.38
2022-08-14T20:03:11.207Z,51.43
2022-08-14T20:05:46.329Z,51.42
2022-08-14T20:10:59.044Z,51.44
2022-08-14T20:11:58.572Z,51.45
2022-08-14T20:14:27.963Z,51.75
2022-08-14T20:17:06.222Z,51.69
2022-08-14T20:19:41.481Z,51.86
2022-08-14T20:22:37.256Z,51.84
2022-08-14T20:25:16.754Z,52.05
2022-08-14T20:27:59.297Z,52.21
2022-08-14T20:30:33.629Z,52.01
2022-08-14T20:33:11.190Z,52.23
2022-08-14T20:35:49.198Z,52.31
2022-08-14T20:38:30.909Z,52.60
2022-08-14T20:41:07.525Z,52.74
2022-08-14T20:44:01.038Z,53.20
2022-08-14T20:46:38.443Z,53.51
2022-08-14T20:49:16.140Z,53.91
2022-08-14T20:51:58.700Z,54.12
2022-08-14T20:54:33.787Z,54.30
2022-08-14T20:57:08.768Z,54.38
2022-08-14T20:59:44.438Z,54.40
2022-08-14T21:02:38.749Z,54.56
2022-08-14T21:05:33.470Z,54.63
2022-08-14T21:08:09.612Z,54.69
2022-08-14T21:10:45.702Z,54.86
2022-08-14T21:13:27.916Z,54.93
2022-08-14T21:16:30.837Z,54.98
2022-08-14T21:19:02.454Z,54.96
2022-08-14T21:21:41.579Z,55.01
2022-08-14T21:24:40.129Z,55.28
2022-08-14T21:27:12.868Z,55.43
2022-08-14T21:29:55.192Z,55.75
2022-08-14T21:32:47.043Z,55.63
2022-08-14T21:35:23.024Z,55.85
2022-08-14T21:37:55.594Z,55.88
2022-08-14T21:40:42.146Z,56.05
2022-08-14T21:43:19.469Z,56.23
2022-08-14T21:45:53.942Z,56.26
2022-08-14T21:48:29.478Z,56.31
2022-08-14T21:51:54.028Z,56.34
2022-08-14T21:54:00.272Z,56.45
2022-08-14T21:56:38.496Z,56.44
2022-08-14T21:59:17.838Z,56.39
2022-08-14T22:02:00.098Z,56.38
2022-08-14T22:04:40.029Z,56.24
2022-08-14T22:07:17.207Z,56.37
2022-08-14T22:09:54.956Z,56.30
2022-08-14T22:12:45.552Z,56.57
2022-08-14T22:15:20.761Z,56.48
2022-08-14T22:17:54.459Z,56.63
2022-08-14T22:20:28.639Z,56.60
2022-08-14T22:23:03.032Z,56.41
2022-08-14T22:25:41.107Z,56.18
2022-08-14T22:28:16.737Z,56.45
2022-08-14T22:30:55.025Z,56.46
2022-08-14T22:33:30.936Z,56.41
2022-08-14T22:36:25.120Z,56.46
2022-08-14T22:38:57.370Z,56.78
2022-08-14T22:41:31.534Z,56.89
2022-08-14T22:44:06.469Z,56.77
2022-08-14T22:46:38.026Z,56.76
2022-08-14T22:50:29.372Z,56.98
2022-08-14T22:52:32.639Z,57.47
2022-08-14T22:55:01.401Z,57.75
2022-08-14T22:57:41.940Z,57.84
2022-08-14T23:00:25.369Z,58.27
2022-08-14T23:03:04.026Z,58.56
2022-08-14T23:05:40.100Z,58.70
2022-08-14T23:08:56.163Z,58.74
2022-08-14T23:11:14.344Z,58.95
2022-08-14T23:13:46.274Z,59.15
2022-08-14T23:16:19.861Z,59.23
2022-08-14T23:18:53.566Z,59.18
2022-08-14T23:21:28.810Z,59.32
2022-08-14T23:24:00.640Z,59.31
2022-08-14T23:26:49.407Z,59.31
2022-08-14T23:29:21.845Z,59.17
2022-08-14T23:31:52.872Z,59.22
2022-08-14T23:34:24.788Z,59.36
2022-08-14T23:37:03.983Z,59.22
2022-08-14T23:39:35.937Z,59.10
2022-08-14T23:42:13.386Z,59.20
2022-08-14T23:44:49.007Z,59.19
2022-08-14T23:47:26.733Z,59.24
2022-08-14T23:50:03.303Z,59.36
2022-08-14T23:52:50.647Z,59.43
2022-08-14T23:55:28.869Z,59.38
2022-08-14T23:58:00.729Z,59.45
